עמוד ראשי
METAR-TAF:

METAR-TAF

שדות תעופה :

Santa Ana del Yacuma, בוליביה

קו רוחב: 13-46S, קו אורך: 065-26W, גובה: 144מטר

תצפית מזג אוויר נוכחית

הדו"ח נערך לפני 5 שעות ו 37דקות, בשעה 23:00 UTC
רוח רגועה
טמפרטורת 28 צלסיוס
לחות 58%
לחץ 1015 hPa
ראות: 6000מטר

METAR: SLSA 242300Z 00000KT 6000 NSC 28/19 Q1015

זמן: 00:37 (04:37 UTC)


TAF: חסר

תצפיות ותחזיות מזג אוויר לגבי יותר מ- 4,000 שדות תעופה ברחבי העולם. דוחות METAR ו- TAF.

התחנות הזמינות מסומנות בנקודות צהובות ואדומות על גבי המפה.

העבר את העכבר לנקודה הצבעונית על מנת לראות את שם התחנה.

לאחר מכן, לחץ כדי לראות את תוכן ואת תחזיות מזג האוויר.

כדי לשנות את המפה: לחץ על הכפתורים הירוקים עם הפלוס השחור כדי להתקרב; על הכפתור הירוק עם המקף כדי להתרחק; או בחיצים הירוקים למפות סמוכות.


METAR-TAF: